Time;durP1;ratioP1;P1;durP2;ratioP2;P2;SDS_P1;SDS_P2;PMS_P1;PMS_P2;Temp;Humidity;BMP_temperature;BMP_pressure;BME280_temperature;BME280_humidity;BME280_pressure;Samples;Min_cycle;Max_cycle;Signal;HPM_P1;HPM_P2
2023/03/03 00:02:20;;;;;;;19.38;8.68;;;;;;;-143.48;91.97;118439.88;5115380;28;20019;-28
2023/03/03 00:04:46;;;;;;;16.38;8.38;;;;;;;-143.48;91.87;118439.88;5115516;28;20020;-28
2023/03/03 00:07:11;;;;;;;17.02;8.40;;;;;;;-143.48;91.43;118439.88;5115613;28;20027;-28
2023/03/03 00:09:37;;;;;;;19.33;9.13;;;;;;;-143.48;91.35;118439.88;5115361;28;20027;-28
2023/03/03 00:12:17;;;;;;;17.35;8.38;;;;;;;-143.48;91.65;118439.88;5115161;28;20512;-28
2023/03/03 00:14:43;;;;;;;17.83;8.85;;;;;;;-143.48;91.72;118439.88;5115476;28;20019;-28
2023/03/03 00:17:19;;;;;;;20.58;9.00;;;;;;;-143.48;91.16;118439.88;5115277;28;20031;-28
2023/03/03 00:19:46;;;;;;;18.17;8.70;;;;;;;-143.48;90.92;118439.88;5096910;28;20030;-28
2023/03/03 00:22:29;;;;;;;18.17;9.15;;;;;;;-143.48;91.22;118439.88;5115048;28;20023;-28
2023/03/03 00:24:59;;;;;;;20.05;8.85;;;;;;;-143.48;91.81;118439.88;5115498;28;20027;-28
2023/03/03 00:27:34;;;;;;;21.23;9.00;;;;;;;-143.48;91.19;118439.88;5115149;28;20019;-28
2023/03/03 00:30:00;;;;;;;17.95;8.95;;;;;;;-143.48;90.97;118439.88;5115071;28;20042;-27
2023/03/03 00:32:51;;;;;;;18.00;9.00;;;;;;;-143.48;91.21;118439.88;5114334;28;20019;-28
2023/03/03 00:35:29;;;;;;;18.77;9.18;;;;;;;-143.48;91.13;118439.88;5112912;28;20050;-28
2023/03/03 00:38:09;;;;;;;18.00;9.30;;;;;;;-143.48;91.59;118439.88;5094326;28;20378;-28
2023/03/03 00:40:37;;;;;;;18.42;8.85;;;;;;;-143.48;91.41;118439.88;5112617;28;20031;-28
2023/03/03 00:43:16;;;;;;;18.83;9.10;;;;;;;-143.48;91.64;118439.88;5112574;28;20026;-29
2023/03/03 00:45:50;;;;;;;17.77;9.07;;;;;;;-143.48;90.88;118439.88;5112258;28;20023;-28
2023/03/03 00:48:23;;;;;;;19.80;9.55;;;;;;;-143.48;91.84;118439.88;5112453;28;20023;-28
2023/03/03 00:50:49;;;;;;;;;;;;;;;-143.48;91.51;118439.88;5113276;28;20044;-28
2023/03/03 00:53:17;;;;;;;18.13;9.07;;;;;;;-143.48;91.15;118439.88;5114870;28;20277;-27
2023/03/03 00:55:44;;;;;;;18.52;9.52;;;;;;;-143.48;91.11;118439.88;5114394;28;20378;-28
2023/03/03 00:58:09;;;;;;;18.63;9.85;;;;;;;-143.48;91.15;118439.88;5114642;28;20435;-28
2023/03/03 01:00:36;;;;;;;21.58;9.30;;;;;;;-143.48;90.83;118439.88;5114365;28;20020;-28
2023/03/03 01:03:06;;;;;;;22.13;10.50;;;;;;;-143.48;92.05;118439.88;5114542;28;20525;-27
2023/03/03 01:05:32;;;;;;;20.40;9.68;;;;;;;-143.48;91.39;118439.88;5114636;28;20011;-28
2023/03/03 01:07:58;;;;;;;18.05;9.35;;;;;;;-143.48;91.97;118439.88;5114451;28;20416;-27
2023/03/03 01:10:27;;;;;;;17.92;9.60;;;;;;;-143.48;91.28;118439.88;5114115;28;20043;-28
2023/03/03 01:12:52;;;;;;;18.08;10.07;;;;;;;-143.48;91.70;118439.88;5114217;28;20023;-27
2023/03/03 01:15:18;;;;;;;21.17;10.65;;;;;;;-143.48;91.12;118439.88;5114136;28;20106;-27
2023/03/03 01:17:43;;;;;;;20.85;10.35;;;;;;;-143.48;91.97;118439.88;5114384;28;20069;-28
2023/03/03 01:20:11;;;;;;;20.83;10.80;;;;;;;-143.48;93.23;118439.88;5114090;28;20028;-27
2023/03/03 01:22:37;;;;;;;26.13;11.48;;;;;;;-143.48;93.75;118439.88;5113999;28;20474;-28
2023/03/03 01:25:02;;;;;;;20.98;11.63;;;;;;;-143.48;94.13;118439.88;5113993;28;20026;-28
2023/03/03 01:27:29;;;;;;;22.58;11.07;;;;;;;-143.48;93.35;118439.88;5114020;28;20068;-27
2023/03/03 01:29:55;;;;;;;24.70;12.50;;;;;;;-143.48;92.94;118439.88;5095632;28;20080;-27
2023/03/03 01:32:21;;;;;;;26.05;12.30;;;;;;;-143.48;93.27;118439.88;5095771;28;20023;-28
2023/03/03 01:34:46;;;;;;;26.38;12.68;;;;;;;-143.48;92.83;118439.88;5113913;28;20047;-28
2023/03/03 01:37:12;;;;;;;26.60;13.25;;;;;;;-143.48;93.70;118439.88;5114119;28;20031;-28
2023/03/03 01:39:37;;;;;;;28.40;13.85;;;;;;;-143.48;93.87;118439.88;5113871;28;20486;-28
2023/03/03 01:42:02;;;;;;;27.23;13.13;;;;;;;-143.48;93.80;118439.88;5114075;28;20160;-28
2023/03/03 01:44:28;;;;;;;27.92;13.75;;;;;;;-143.48;94.79;118439.88;5114154;28;20468;-28
2023/03/03 01:46:53;;;;;;;26.50;13.63;;;;;;;-143.48;94.36;118439.88;5113815;28;20016;-28
2023/03/03 01:49:23;;;;;;;31.73;13.73;;;;;;;-143.48;94.51;118439.88;5114071;28;20039;-28
2023/03/03 01:51:56;;;;;;;27.98;13.63;;;;;;;-143.48;94.46;118439.88;5114257;28;20024;-28
2023/03/03 01:54:45;;;;;;;32.97;13.90;;;;;;;-143.48;94.22;118439.88;5113744;28;20042;-28
2023/03/03 01:57:17;;;;;;;28.85;13.13;;;;;;;-143.48;93.69;118439.88;5113975;28;20024;-28
2023/03/03 01:59:48;;;;;;;26.27;13.55;;;;;;;-143.48;93.25;118439.88;5113729;28;20089;-28
2023/03/03 02:02:13;;;;;;;27.52;12.88;;;;;;;-143.48;93.48;118439.88;5113626;28;20027;-28
2023/03/03 02:04:39;;;;;;;28.63;13.57;;;;;;;-143.48;94.28;118439.88;5113655;28;20350;-28
2023/03/03 02:07:09;;;;;;;27.35;13.57;;;;;;;-143.48;94.36;118439.88;5113938;28;20024;-27
2023/03/03 02:09:58;;;;;;;28.77;13.80;;;;;;;-143.48;94.66;118439.88;5113856;28;20497;-28
2023/03/03 02:12:32;;;;;;;27.42;12.57;;;;;;;-143.48;94.59;118439.88;5108375;28;20470;-27
2023/03/03 02:14:58;;;;;;;27.70;12.48;;;;;;;-143.48;95.14;118439.88;5118063;28;20034;-27
2023/03/03 02:17:24;;;;;;;26.95;13.13;;;;;;;-143.48;94.36;118439.88;5117874;28;20103;-27
2023/03/03 02:20:01;;;;;;;22.45;10.32;;;;;;;-143.48;93.97;118439.88;5099306;28;20405;-27
2023/03/03 02:22:47;;;;;;;25.48;10.65;;;;;;;-143.48;94.98;118439.88;5117669;28;20031;-28
2023/03/03 02:25:21;;;;;;;24.13;10.25;;;;;;;-143.48;94.41;118439.88;5117403;28;20080;-28
2023/03/03 02:27:47;;;;;;;23.42;11.23;;;;;;;-143.48;94.19;118439.88;5117424;28;20408;-28
2023/03/03 02:30:19;;;;;;;19.60;9.70;;;;;;;-143.48;94.60;118439.88;5117327;28;20065;-28
2023/03/03 02:32:45;;;;;;;21.75;9.63;;;;;;;-143.48;94.59;118439.88;5115174;28;20019;-27
2023/03/03 02:35:36;;;;;;;25.25;9.65;;;;;;;-143.48;93.90;118439.88;5114887;28;20474;-28
2023/03/03 02:38:26;;;;;;;22.67;10.15;;;;;;;-143.48;94.49;118439.88;5115006;28;20035;-28
2023/03/03 02:41:27;;;;;;;21.20;10.65;;;;;;;-143.48;94.20;118439.88;5103019;28;20035;-28
2023/03/03 02:44:11;;;;;;;22.90;10.20;;;;;;;-143.48;94.59;118439.88;5114890;28;20482;-28
2023/03/03 02:46:38;;;;;;;;;;;;;;;-143.48;94.09;118439.88;5115229;28;20023;-28
2023/03/03 02:49:05;;;;;;;24.20;11.15;;;;;;;-143.48;94.74;118439.88;5115100;28;19955;-27
2023/03/03 02:51:31;;;;;;;27.02;12.77;;;;;;;-143.48;94.54;118439.88;5114716;28;20027;-28
2023/03/03 02:53:56;;;;;;;30.75;12.43;;;;;;;-143.48;94.74;118439.88;5116207;28;20019;-28
2023/03/03 02:56:22;;;;;;;27.50;13.13;;;;;;;-143.48;95.85;118439.88;5116811;28;20023;-27
2023/03/03 02:58:47;;;;;;;24.90;13.15;;;;;;;-143.48;96.13;118439.88;5116626;28;20058;-28
2023/03/03 03:01:13;;;;;;;29.65;12.40;;;;;;;-143.48;96.24;118439.88;5116941;28;20031;-28
2023/03/03 03:03:38;;;;;;;27.13;12.23;;;;;;;-143.48;95.65;118439.88;5116697;28;20182;-27
2023/03/03 03:06:04;;;;;;;24.50;11.77;;;;;;;-143.48;95.11;118439.88;5117220;28;20023;-28
2023/03/03 03:08:29;;;;;;;25.63;11.13;;;;;;;-143.48;95.02;118439.88;5116693;28;20030;-27
2023/03/03 03:10:56;;;;;;;25.67;11.32;;;;;;;-143.48;95.26;118439.88;5116559;28;20050;-27
2023/03/03 03:13:22;;;;;;;23.67;10.55;;;;;;;-143.48;95.04;118439.88;5116780;28;20032;-28
2023/03/03 03:15:48;;;;;;;24.30;10.02;;;;;;;-143.48;95.08;118439.88;5116666;28;20020;-28
2023/03/03 03:18:14;;;;;;;20.73;9.40;;;;;;;-143.48;95.26;118439.88;5116665;28;20355;-28
2023/03/03 03:20:40;;;;;;;23.25;10.23;;;;;;;-143.48;96.03;118439.88;5116232;28;20066;-27
2023/03/03 03:23:06;;;;;;;20.88;9.85;;;;;;;-143.48;96.56;118439.88;5116739;28;20020;-28
2023/03/03 03:25:32;;;;;;;23.63;10.32;;;;;;;-143.48;96.47;118439.88;5116840;28;20362;-27
2023/03/03 03:27:57;;;;;;;23.92;10.63;;;;;;;-143.48;95.84;118439.88;5117318;28;20030;-27
2023/03/03 03:30:23;;;;;;;24.35;10.82;;;;;;;-143.48;96.51;118439.88;5116136;28;20027;-27
2023/03/03 03:32:48;;;;;;;20.45;10.20;;;;;;;-143.48;96.22;118439.88;5116450;28;20031;-27
2023/03/03 03:35:14;;;;;;;40.53;11.35;;;;;;;-143.48;95.17;118439.88;5116215;28;20032;-27
2023/03/03 03:37:39;;;;;;;24.42;10.75;;;;;;;-143.48;95.29;118439.88;5116264;28;20373;-27
2023/03/03 03:40:05;;;;;;;29.63;12.15;;;;;;;-143.48;95.61;118439.88;5116300;28;20023;-27
2023/03/03 03:42:31;;;;;;;26.90;11.07;;;;;;;-143.48;96.68;118439.88;5115780;28;20458;-27
2023/03/03 03:44:56;;;;;;;27.30;11.43;;;;;;;-143.48;97.28;118439.88;5115851;28;20412;-27
2023/03/03 03:47:21;;;;;;;26.27;12.00;;;;;;;-143.48;97.27;118439.88;5116178;28;20055;-27
2023/03/03 03:49:47;;;;;;;25.75;11.65;;;;;;;-143.48;97.09;118439.88;5116352;28;20058;-27
2023/03/03 03:52:12;;;;;;;27.42;11.93;;;;;;;-143.48;96.91;118439.88;5115655;28;20521;-27
2023/03/03 03:54:37;;;;;;;29.40;12.50;;;;;;;-143.48;97.02;118439.88;5116147;28;20081;-27
2023/03/03 03:57:03;;;;;;;33.67;12.55;;;;;;;-143.48;97.12;118439.88;5115949;28;20068;-27
2023/03/03 03:59:28;;;;;;;24.65;12.18;;;;;;;-143.48;96.63;118439.88;5097302;28;20534;-27
2023/03/03 04:01:53;;;;;;;39.28;13.55;;;;;;;-143.48;96.39;118439.88;5115627;28;20019;-27
2023/03/03 04:04:18;;;;;;;36.08;13.43;;;;;;;-143.48;96.33;118439.88;5115660;28;20019;-27
2023/03/03 04:06:44;;;;;;;40.92;13.40;;;;;;;-143.48;96.76;118439.88;5115745;28;20023;-27
2023/03/03 04:09:10;;;;;;;37.53;14.15;;;;;;;-143.48;98.12;118439.88;5115662;28;20095;-27
2023/03/03 04:11:35;;;;;;;53.63;11.70;;;;;;;-143.48;97.41;118439.88;5115307;28;20044;-27
2023/03/03 04:14:00;;;;;;;39.08;14.63;;;;;;;-143.48;98.64;118439.88;5115450;28;20513;-27
2023/03/03 04:16:26;;;;;;;63.10;15.68;;;;;;;-143.48;99.07;118439.88;5115598;28;20026;-27
2023/03/03 04:18:51;;;;;;;45.17;13.02;;;;;;;-143.48;99.96;118439.88;5116079;28;20343;-27
2023/03/03 04:21:16;;;;;;;35.08;13.43;;;;;;;-143.48;99.33;118439.88;5115311;28;20107;-27
2023/03/03 04:23:42;;;;;;;33.80;12.70;;;;;;;-143.48;98.82;118439.88;5115347;28;20024;-28
2023/03/03 04:26:08;;;;;;;37.88;12.60;;;;;;;-143.48;98.06;118439.88;5114969;28;20030;-27
2023/03/03 04:28:33;;;;;;;30.77;12.55;;;;;;;-143.48;98.02;118439.88;5115332;28;20020;-27
2023/03/03 04:30:59;;;;;;;30.42;12.55;;;;;;;-143.48;97.76;118439.88;5115553;28;20063;-27
2023/03/03 04:33:24;;;;;;;29.98;12.05;;;;;;;-143.48;98.32;118439.88;5115169;28;20032;-27
2023/03/03 04:35:50;;;;;;;32.90;12.75;;;;;;;-143.48;97.50;118439.88;5114040;28;20103;-27
2023/03/03 04:38:16;;;;;;;30.52;12.95;;;;;;;-143.48;97.55;118439.88;5115107;28;20015;-27
2023/03/03 04:40:42;;;;;;;36.00;12.27;;;;;;;-143.48;97.73;118439.88;5115388;28;20173;-27
2023/03/03 04:43:08;;;;;;;46.95;12.93;;;;;;;-143.48;97.81;118439.88;5114746;28;20058;-27
2023/03/03 04:45:33;;;;;;;35.08;13.60;;;;;;;-143.48;98.30;118439.88;5115012;28;20051;-27
2023/03/03 04:47:59;;;;;;;36.10;12.75;;;;;;;-143.48;98.14;118439.88;5114787;28;20362;-27
2023/03/03 04:50:24;;;;;;;33.95;12.63;;;;;;;-143.48;98.01;118439.88;5114889;28;20462;-27
2023/03/03 04:52:49;;;;;;;26.77;12.15;;;;;;;-143.48;97.78;118439.88;5114616;28;20030;-27
2023/03/03 04:55:15;;;;;;;39.33;12.35;;;;;;;-143.48;97.71;118439.88;5114944;28;20072;-27
2023/03/03 04:57:41;;;;;;;36.28;13.23;;;;;;;-143.48;97.53;118439.88;5114762;28;20496;-27
2023/03/03 05:00:08;;;;;;;33.63;12.63;;;;;;;-143.48;97.22;118439.88;5114701;28;20069;-28
2023/03/03 05:02:33;;;;;;;28.17;12.07;;;;;;;-143.48;97.50;118439.88;5114356;28;20023;-28
2023/03/03 05:04:58;;;;;;;29.60;11.45;;;;;;;-143.48;97.19;118439.88;5114711;28;20034;-28
2023/03/03 05:07:24;;;;;;;25.05;10.73;;;;;;;-143.48;96.88;118439.88;5114715;28;20457;-28
2023/03/03 05:09:49;;;;;;;25.00;10.68;;;;;;;-143.48;97.44;118439.88;5114619;28;20050;-27
2023/03/03 05:12:15;;;;;;;25.70;10.73;;;;;;;-143.48;96.93;118439.88;5114128;28;20039;-27
2023/03/03 05:14:41;;;;;;;22.60;10.25;;;;;;;-143.48;97.20;118439.88;5114072;28;20023;-27
2023/03/03 05:17:06;;;;;;;23.58;9.90;;;;;;;-143.48;97.16;118439.88;5114968;28;20030;-28
2023/03/03 05:19:33;;;;;;;21.20;10.00;;;;;;;-143.48;96.78;118439.88;5114326;28;20030;-27
2023/03/03 05:21:59;;;;;;;22.75;9.60;;;;;;;-143.48;96.46;118439.88;5113972;28;20034;-27
2023/03/03 05:24:24;;;;;;;19.15;8.35;;;;;;;-143.48;96.24;118439.88;5114394;28;20015;-28
2023/03/03 05:26:49;;;;;;;18.33;8.68;;;;;;;-143.48;96.45;118439.88;5095869;28;20107;-27
2023/03/03 05:29:15;;;;;;;20.63;9.13;;;;;;;-143.48;96.91;118439.88;5114329;28;20024;-28
2023/03/03 05:31:40;;;;;;;20.17;8.68;;;;;;;-143.48;97.00;118439.88;5114213;28;20127;-28
2023/03/03 05:34:05;;;;;;;20.08;8.63;;;;;;;-143.48;96.75;118439.88;5114159;28;20484;-28
2023/03/03 05:36:31;;;;;;;23.48;8.10;;;;;;;-143.48;96.78;118439.88;5113902;28;20019;-27
2023/03/03 05:38:56;;;;;;;16.27;8.13;;;;;;;-143.48;97.00;118439.88;5096559;28;20030;-27
2023/03/03 05:41:21;;;;;;;19.70;8.48;;;;;;;-143.48;96.86;118439.88;5114379;28;20038;-27
2023/03/03 05:43:47;;;;;;;19.63;7.82;;;;;;;-143.48;96.19;118439.88;5113714;28;20122;-27
2023/03/03 05:46:12;;;;;;;16.73;7.53;;;;;;;-143.48;96.44;118439.88;5095941;28;20020;-28
2023/03/03 05:48:37;;;;;;;16.90;7.82;;;;;;;-143.48;96.78;118439.88;5118368;28;20358;-28
2023/03/03 05:51:03;;;;;;;16.50;7.28;;;;;;;-143.48;96.78;118439.88;5118395;28;20478;-27
2023/03/03 05:53:28;;;;;;;17.35;7.70;;;;;;;-143.48;97.40;118439.88;5118213;28;20035;-27
2023/03/03 05:55:54;;;;;;;23.38;7.75;;;;;;;-143.48;97.64;118439.88;5117814;28;20432;-27
2023/03/03 05:58:20;;;;;;;16.45;7.13;;;;;;;-143.48;97.67;118439.88;5118274;28;20031;-28
2023/03/03 06:00:45;;;;;;;18.45;7.65;;;;;;;-143.48;97.25;118439.88;5118583;28;20109;-28
2023/03/03 06:03:11;;;;;;;14.68;6.93;;;;;;;-143.48;97.70;118439.88;5117873;28;20080;-28
2023/03/03 06:05:36;;;;;;;19.90;7.15;;;;;;;-143.48;97.41;118439.88;5118089;28;20023;-28
2023/03/03 06:08:01;;;;;;;22.45;7.35;;;;;;;-143.48;96.70;118439.88;5117758;28;20030;-28
2023/03/03 06:10:27;;;;;;;23.80;6.63;;;;;;;-143.48;97.61;118439.88;5117716;28;20040;-27
2023/03/03 06:12:53;;;;;;;14.55;7.13;;;;;;;-143.48;97.59;118439.88;5118064;28;20106;-27
2023/03/03 06:15:19;;;;;;;15.10;7.50;;;;;;;-143.48;98.04;118439.88;5117687;28;20385;-28
2023/03/03 06:17:44;;;;;;;18.48;7.57;;;;;;;-143.48;97.45;118439.88;5117929;28;20030;-28
2023/03/03 06:20:10;;;;;;;16.10;7.07;;;;;;;-143.48;97.40;118439.88;5117516;28;20526;-27
2023/03/03 06:22:35;;;;;;;14.02;6.97;;;;;;;-143.48;97.56;118439.88;5116986;28;20072;-28
2023/03/03 06:25:01;;;;;;;16.50;6.68;;;;;;;-143.48;97.59;118439.88;5117875;28;20062;-28
2023/03/03 06:27:26;;;;;;;20.35;6.82;;;;;;;-143.48;97.68;118439.88;5117310;28;20024;-27
2023/03/03 06:29:51;;;;;;;13.10;7.18;;;;;;;-143.48;97.65;118439.88;5117715;28;20069;-28
2023/03/03 06:32:17;;;;;;;14.75;6.60;;;;;;;-143.48;97.15;118439.88;5117573;28;20020;-27
2023/03/03 06:34:42;;;;;;;13.40;7.30;;;;;;;-143.48;97.42;118439.88;5117537;28;20412;-28
2023/03/03 06:37:07;;;;;;;19.02;7.18;;;;;;;-143.48;97.90;118439.88;5117677;28;20584;-27
2023/03/03 06:39:33;;;;;;;40.97;7.70;;;;;;;-143.48;97.68;118439.88;5117708;28;20362;-28
2023/03/03 06:41:58;;;;;;;18.50;7.72;;;;;;;-143.48;98.31;118439.88;5117622;28;20473;-28
2023/03/03 06:44:23;;;;;;;24.00;9.02;;;;;;;-143.48;98.14;118439.88;5117390;28;20015;-28
2023/03/03 06:46:49;;;;;;;22.15;7.53;;;;;;;-143.48;98.29;118439.88;5117824;28;20335;-28
2023/03/03 06:49:14;;;;;;;15.68;8.10;;;;;;;-143.48;97.84;118439.88;5116913;28;20474;-27
2023/03/03 06:51:40;;;;;;;20.73;9.00;;;;;;;-143.48;97.70;118439.88;5117167;28;20019;-27
2023/03/03 06:54:18;;;;;;;19.77;8.32;;;;;;;-143.48;97.63;118439.88;5116694;28;20051;-28
2023/03/03 06:56:45;;;;;;;19.42;8.65;;;;;;;-143.48;98.14;118439.88;5117182;28;20028;-28
2023/03/03 06:59:13;;;;;;;23.42;8.60;;;;;;;-143.48;97.96;118439.88;5116008;28;20031;-28
2023/03/03 07:01:39;;;;;;;19.10;8.82;;;;;;;-143.48;98.17;118439.88;5116827;28;20039;-27
2023/03/03 07:04:35;;;;;;;22.52;8.30;;;;;;;-143.48;98.27;118439.88;5117005;28;20015;-28
2023/03/03 07:07:14;;;;;;;18.75;8.93;;;;;;;-143.48;98.45;118439.88;5115030;28;20036;-28
2023/03/03 07:09:39;;;;;;;19.75;9.05;;;;;;;-143.48;98.17;118439.88;5116864;28;20461;-27
2023/03/03 07:12:18;;;;;;;21.15;8.48;;;;;;;-143.48;97.55;118439.88;5116465;28;20036;-28
2023/03/03 07:14:46;;;;;;;22.05;8.65;;;;;;;-143.48;97.27;118439.88;5116760;28;20026;-28
2023/03/03 07:17:18;;;;;;;21.27;8.10;;;;;;;-143.48;96.83;118439.88;5116541;28;20016;-27
2023/03/03 07:19:44;;;;;;;22.33;9.02;;;;;;;-143.48;97.83;118439.88;5116737;28;20084;-27
2023/03/03 07:22:21;;;;;;;22.45;9.27;;;;;;;-143.48;98.85;118439.88;5116482;28;20028;-28
2023/03/03 07:24:50;;;;;;;32.08;8.90;;;;;;;-143.48;99.04;118439.88;5098043;28;20092;-28
2023/03/03 07:27:27;;;;;;;21.85;8.88;;;;;;;-143.48;98.73;118439.88;5116553;28;20019;-28
2023/03/03 07:30:00;;;;;;;38.70;8.60;;;;;;;-143.48;98.53;118439.88;5099038;28;20028;-28
2023/03/03 07:32:41;;;;;;;22.00;8.20;;;;;;;-143.48;99.14;118439.88;5116443;28;20027;-28
2023/03/03 07:35:31;;;;;;;23.33;8.77;;;;;;;-143.48;98.96;118439.88;5116558;28;20032;-28
2023/03/03 07:37:57;;;;;;;26.10;8.35;;;;;;;-143.48;98.60;118439.88;5116641;28;20027;-27
2023/03/03 07:40:35;;;;;;;26.00;8.77;;;;;;;-143.48;98.87;118439.88;5115916;28;20466;-27
2023/03/03 07:43:36;;;;;;;17.02;7.65;;;;;;;-143.48;98.39;118439.88;5115896;28;20023;-28
2023/03/03 07:46:13;;;;;;;23.05;8.07;;;;;;;-143.48;99.79;118439.88;5116596;28;20035;-28
2023/03/03 07:48:41;;;;;;;19.67;7.95;;;;;;;-143.48;99.44;118439.88;5116174;28;20139;-27
2023/03/03 07:51:26;;;;;;;20.90;8.30;;;;;;;-143.48;99.14;118439.88;5115848;28;20494;-28
2023/03/03 07:54:13;;;;;;;35.83;9.85;;;;;;;-143.48;98.96;118439.88;5115487;28;20556;-28
2023/03/03 07:56:39;;;;;;;26.75;9.40;;;;;;;-143.48;98.89;118439.88;5116197;28;20481;-28
2023/03/03 07:59:23;;;;;;;22.92;8.43;;;;;;;-143.48;98.91;118439.88;5115553;28;20047;-28
2023/03/03 08:01:57;;;;;;;15.85;7.68;;;;;;;-143.48;98.27;118439.88;5114500;28;20103;-28
2023/03/03 08:04:37;;;;;;;17.13;8.20;;;;;;;-143.48;98.40;118439.88;5113893;28;20016;-28
2023/03/03 08:07:12;;;;;;;19.15;8.05;;;;;;;-143.48;98.71;118439.88;5115134;28;20024;-27
2023/03/03 08:09:43;;;;;;;19.45;8.00;;;;;;;-143.48;97.99;118439.88;5114504;28;20023;-27
2023/03/03 08:12:19;;;;;;;16.33;8.27;;;;;;;-143.48;97.43;118439.88;5114274;28;20047;-28
2023/03/03 08:14:45;;;;;;;21.33;7.97;;;;;;;-143.48;97.22;118439.88;5113436;28;20045;-28
2023/03/03 08:17:20;;;;;;;17.65;8.15;;;;;;;-143.48;97.15;118439.88;5113059;28;20102;-28
2023/03/03 08:19:46;;;;;;;15.43;6.80;;;;;;;-143.48;96.66;118439.88;5113098;28;20020;-28
2023/03/03 08:22:25;;;;;;;14.52;6.50;;;;;;;-143.48;94.85;118439.88;5112940;28;20474;-28
2023/03/03 08:24:51;;;;;;;13.52;6.70;;;;;;;-143.48;94.58;118439.88;5112922;28;20020;-28
2023/03/03 08:27:16;;;;;;;14.32;6.47;;;;;;;-143.48;95.37;118439.88;5113044;28;20034;-28
2023/03/03 08:29:41;;;;;;;13.55;6.28;;;;;;;-143.48;95.72;118439.88;5114571;28;20052;-28
2023/03/03 08:32:07;;;;;;;17.48;7.07;;;;;;;-143.48;93.81;118439.88;5096726;28;20117;-28
2023/03/03 08:34:33;;;;;;;14.88;6.75;;;;;;;-143.48;93.24;118439.88;5114825;28;20034;-29
2023/03/03 08:36:58;;;;;;;16.95;6.43;;;;;;;-143.48;93.25;118439.88;5115227;28;20035;-28
2023/03/03 08:39:23;;;;;;;13.63;6.60;;;;;;;-143.48;93.88;118439.88;5115013;28;20031;-29
2023/03/03 08:41:49;;;;;;;14.48;5.90;;;;;;;-143.48;92.32;118439.88;5114886;28;20027;-28
2023/03/03 08:44:14;;;;;;;13.48;5.15;;;;;;;-143.48;87.70;118439.88;5114577;28;20023;-27
2023/03/03 08:46:39;;;;;;;9.90;5.55;;;;;;;-143.48;86.58;118439.88;5114915;28;20026;-27
2023/03/03 08:49:05;;;;;;;10.02;5.20;;;;;;;-143.48;89.42;118439.88;5114876;28;20028;-27
2023/03/03 08:51:32;;;;;;;11.77;5.28;;;;;;;-143.48;89.57;118439.88;5115120;28;20019;-28
2023/03/03 08:53:57;;;;;;;10.32;5.15;;;;;;;-143.48;89.88;118439.88;5114771;28;20031;-28
2023/03/03 08:56:23;;;;;;;8.38;4.82;;;;;;;-143.48;92.11;118439.88;5114819;28;20382;-28
2023/03/03 08:58:48;;;;;;;11.25;5.50;;;;;;;-143.48;90.30;118439.88;5114754;28;20047;-28
2023/03/03 09:01:17;;;;;;;12.63;5.90;;;;;;;-143.48;89.87;118439.88;5115431;28;20366;-28
2023/03/03 09:03:42;;;;;;;11.20;5.78;;;;;;;-143.48;91.23;118439.88;5114684;28;20084;-28
2023/03/03 09:06:08;;;;;;;11.82;5.70;;;;;;;-143.48;89.88;118439.88;5114861;28;20027;-28
2023/03/03 09:08:33;;;;;;;12.88;5.72;;;;;;;-143.48;90.14;118439.88;5114372;28;20020;-27
2023/03/03 09:10:59;;;;;;;12.07;5.18;;;;;;;-143.48;90.75;118439.88;5114047;28;20047;-28
2023/03/03 09:13:24;;;;;;;11.43;5.40;;;;;;;-143.48;88.20;118439.88;5114529;28;20016;-27
2023/03/03 09:15:50;;;;;;;8.60;5.20;;;;;;;-143.48;86.12;118439.88;5114708;28;20066;-28
2023/03/03 09:18:43;;;;;;;9.38;5.20;;;;;;;-143.48;85.71;118439.88;5114442;28;20446;-28
2023/03/03 09:21:31;;;;;;;8.88;4.80;;;;;;;-143.48;84.26;118439.88;5111736;28;20036;-28
2023/03/03 09:24:00;;;;;;;8.68;5.00;;;;;;;-143.48;84.40;118439.88;5114318;28;20028;-28
2023/03/03 09:26:44;;;;;;;9.63;4.70;;;;;;;-143.48;82.16;118439.88;5114294;28;20019;-28
2023/03/03 09:29:39;;;;;;;9.13;4.40;;;;;;;-143.48;72.71;118439.88;5114320;28;20028;-28
2023/03/03 09:32:30;;;;;;;9.52;4.65;;;;;;;-143.48;79.92;118439.88;5097247;28;20069;-28
2023/03/03 09:34:55;;;;;;;9.10;4.60;;;;;;;-143.48;76.60;118439.88;5113005;28;20034;-28
2023/03/03 09:37:37;;;;;;;8.43;4.25;;;;;;;-143.48;80.95;118439.88;5114202;28;20118;-28
2023/03/03 09:40:31;;;;;;;6.57;4.35;;;;;;;-143.48;74.17;118439.88;5114064;28;20346;-29
2023/03/03 09:43:03;;;;;;;7.45;4.05;;;;;;;-143.48;72.53;118439.88;5113730;28;20075;-29
2023/03/03 09:45:55;;;;;;;8.18;4.20;;;;;;;-143.48;76.37;118439.88;5113726;28;20027;-29
2023/03/03 09:48:29;;;;;;;7.43;4.03;;;;;;;-143.48;78.93;118439.88;5113800;28;20059;-28
2023/03/03 09:51:16;;;;;;;6.93;3.63;;;;;;;-143.48;79.93;118439.88;5114102;28;20115;-28
2023/03/03 09:53:49;;;;;;;7.53;3.83;;;;;;;-143.48;78.25;118439.88;5113926;28;20116;-28
2023/03/03 09:56:43;;;;;;;7.82;4.05;;;;;;;-143.48;75.54;118439.88;5113727;28;20034;-28
2023/03/03 09:59:30;;;;;;;8.38;4.00;;;;;;;-143.48;76.80;118439.88;5113996;28;20466;-28
2023/03/03 10:02:29;;;;;;;9.63;4.07;;;;;;;-143.48;78.93;118439.88;5113988;28;20035;-29
2023/03/03 10:05:16;;;;;;;10.48;4.03;;;;;;;-143.48;80.35;118439.88;5113891;28;20020;-28
2023/03/03 10:07:54;;;;;;;8.73;4.65;;;;;;;-143.48;75.17;118439.88;5113302;28;20028;-29
2023/03/03 10:10:38;;;;;;;7.93;4.38;;;;;;;-143.48;74.38;118439.88;5112335;28;20086;-29
2023/03/03 10:13:18;;;;;;;8.30;4.18;;;;;;;-143.48;75.08;118439.88;5111545;28;20024;-28
2023/03/03 10:16:21;;;;;;;8.52;3.90;;;;;;;-143.48;57.16;118439.88;5112813;28;20026;-29
2023/03/03 10:18:52;;;;;;;9.05;3.78;;;;;;;-143.48;55.68;118439.88;5112834;28;20148;-28
2023/03/03 10:21:28;;;;;;;7.72;3.72;;;;;;;-143.48;46.86;118439.88;5113075;28;20042;-28
2023/03/03 10:24:00;;;;;;;7.35;3.83;;;;;;;-143.48;56.28;118439.88;5113438;28;20030;-29
2023/03/03 10:26:37;;;;;;;8.02;4.07;;;;;;;-143.48;64.13;118439.88;5113935;28;20015;-29
2023/03/03 10:29:16;;;;;;;7.75;3.83;;;;;;;-143.48;67.63;118439.88;5113560;28;20462;-28
2023/03/03 10:31:41;;;;;;;7.40;3.70;;;;;;;-143.48;67.97;118439.88;5113668;28;20028;-28
2023/03/03 10:34:25;;;;;;;8.82;4.32;;;;;;;-143.48;58.55;118439.88;5115044;28;20031;-29
2023/03/03 10:37:20;;;;;;;6.82;3.78;;;;;;;-143.48;47.76;118439.88;5117482;28;20030;-28
2023/03/03 10:40:17;;;;;;;9.07;4.15;;;;;;;-143.48;50.17;118439.88;5117625;28;20050;-38
2023/03/03 10:43:11;;;;;;;6.10;3.63;;;;;;;-143.48;56.57;118439.88;5117356;28;20030;-29
2023/03/03 10:45:39;;;;;;;7.60;3.85;;;;;;;-143.48;58.10;118439.88;5117365;28;20110;-31
2023/03/03 10:48:07;;;;;;;8.43;3.75;;;;;;;-143.48;60.89;118439.88;5117325;28;20128;-28
2023/03/03 10:50:44;;;;;;;8.07;3.90;;;;;;;-143.48;58.34;118439.88;5116839;28;20474;-29
2023/03/03 10:53:15;;;;;;;12.02;4.50;;;;;;;-143.48;55.84;118439.88;5117337;28;20031;-29
2023/03/03 10:56:00;;;;;;;7.55;3.55;;;;;;;-143.48;58.76;118439.88;5117434;28;20023;-28
2023/03/03 10:58:31;;;;;;;8.57;3.22;;;;;;;-143.48;57.67;118439.88;5115627;28;20020;-28
2023/03/03 11:01:16;;;;;;;10.30;3.60;;;;;;;-143.48;59.09;118439.88;5116686;28;20371;-28
2023/03/03 11:03:49;;;;;;;8.75;3.40;;;;;;;-143.48;57.40;118439.88;5116957;28;20459;-28
2023/03/03 11:06:14;;;;;;;7.82;3.53;;;;;;;-143.48;58.07;118439.88;5116473;28;20546;-29
2023/03/03 11:08:58;;;;;;;5.38;2.97;;;;;;;-143.48;57.31;118439.88;5116746;28;20035;-28
2023/03/03 11:11:54;;;;;;;7.22;3.13;;;;;;;-143.48;56.35;118439.88;5116356;28;20146;-29
2023/03/03 11:14:27;;;;;;;5.70;3.00;;;;;;;-143.48;53.34;118439.88;5116277;28;20106;-29
2023/03/03 11:17:11;;;;;;;;;;;;;;;-143.48;57.08;118439.88;5117088;28;20118;-29
2023/03/03 11:19:55;;;;;;;10.50;3.35;;;;;;;-143.48;59.73;118439.88;5116603;28;19971;-29